Time;durP1;ratioP1;P1;durP2;ratioP2;P2;SDS_P1;SDS_P2;PMS_P1;PMS_P2;Temp;Humidity;BMP_temperature;BMP_pressure;BME280_temperature;BME280_humidity;BME280_pressure;Samples;Min_cycle;Max_cycle;Signal;HPM_P1;HPM_P2
2023/12/15 00:00:01;;;;;;;12.87;12.37;;;7.50;99.90;;;;;;5066123;28;20681;-66
2023/12/15 00:02:28;;;;;;;12.27;11.77;;;7.60;99.90;;;;;;5071347;28;20324;-67
2023/12/15 00:04:56;;;;;;;11.90;11.50;;;7.60;99.90;;;;;;5066562;28;20211;-67
2023/12/15 00:07:22;;;;;;;12.20;11.80;;;7.70;99.90;;;;;;5069300;28;20714;-67
2023/12/15 00:09:49;;;;;;;12.13;11.73;;;7.80;99.90;;;;;;5071541;28;20211;-66
2023/12/15 00:12:16;;;;;;;12.50;12.00;;;7.80;99.90;;;;;;5067304;28;20203;-66
2023/12/15 00:14:42;;;;;;;13.43;12.93;;;7.80;99.90;;;;;;5063210;28;20231;-67
2023/12/15 00:17:09;;;;;;;13.57;13.07;;;7.80;99.90;;;;;;5064915;28;20219;-67
2023/12/15 00:19:36;;;;;;;14.17;13.67;;;7.80;99.90;;;;;;5070864;28;20215;-67
2023/12/15 00:22:04;;;;;;;14.57;14.07;;;7.80;99.90;;;;;;5068486;28;20682;-66
2023/12/15 00:24:31;;;;;;;14.40;13.90;;;7.80;99.90;;;;;;5078421;28;20569;-67
2023/12/15 00:26:58;;;;;;;13.13;12.63;;;7.80;99.90;;;;;;5078283;28;20199;-66
2023/12/15 00:29:26;;;;;;;14.50;14.00;;;7.80;99.90;;;;;;5066555;28;20208;-67
2023/12/15 00:31:52;;;;;;;13.97;13.47;;;7.70;99.90;;;;;;5070443;28;20210;-67
2023/12/15 00:34:19;;;;;;;14.23;13.73;;;7.70;99.90;;;;;;5065214;28;20329;-67
2023/12/15 00:36:46;;;;;;;14.20;13.70;;;7.70;99.90;;;;;;5066241;28;20254;-67
2023/12/15 00:39:14;;;;;;;15.13;14.63;;;7.70;99.90;;;;;;5069581;28;20206;-67
2023/12/15 00:41:41;;;;;;;15.33;14.77;;;7.70;99.90;;;;;;5067596;28;20790;-67
2023/12/15 00:44:07;;;;;;;14.60;14.10;;;7.60;99.90;;;;;;5064938;28;20196;-66
2023/12/15 00:46:34;;;;;;;14.60;14.10;;;7.70;99.90;;;;;;5057598;28;20238;-67
2023/12/15 00:49:01;;;;;;;14.57;14.07;;;7.70;99.90;;;;;;5061840;28;20246;-67
2023/12/15 00:51:27;;;;;;;14.33;13.83;;;7.70;99.90;;;;;;5069637;28;20207;-66
2023/12/15 00:53:57;;;;;;;13.23;12.73;;;7.70;99.90;;;;;;5062063;28;20684;-66
2023/12/15 00:56:25;;;;;;;15.47;14.87;;;7.70;99.90;;;;;;5070843;28;20210;-66
2023/12/15 00:58:52;;;;;;;15.30;14.70;;;7.70;99.90;;;;;;5069801;28;20290;-67
2023/12/15 01:01:18;;;;;;;15.17;14.57;;;7.60;99.90;;;;;;5069242;28;20203;-66
2023/12/15 01:03:45;;;;;;;14.80;14.20;;;7.50;99.90;;;;;;5065323;28;20195;-65
2023/12/15 01:06:12;;;;;;;14.90;14.40;;;7.50;99.90;;;;;;5073488;28;20547;-66
2023/12/15 01:08:38;;;;;;;15.03;14.43;;;7.50;99.90;;;;;;5081387;28;20278;-66
2023/12/15 01:11:06;;;;;;;13.80;13.30;;;7.50;99.90;;;;;;5063019;28;20203;-67
2023/12/15 01:13:34;;;;;;;14.37;13.87;;;7.60;99.90;;;;;;5058643;28;20254;-67
2023/12/15 01:16:04;;;;;;;14.87;14.33;;;7.60;99.90;;;;;;5062015;28;20238;-66
2023/12/15 01:18:30;;;;;;;14.00;13.50;;;7.60;99.90;;;;;;5063366;28;20258;-66
2023/12/15 01:20:57;;;;;;;14.50;14.00;;;7.50;99.90;;;;;;5061101;28;20278;-65
2023/12/15 01:23:24;;;;;;;14.57;14.07;;;7.50;99.90;;;;;;5060331;28;20204;-66
2023/12/15 01:25:50;;;;;;;14.93;14.43;;;7.50;99.90;;;;;;5062012;28;20203;-67
2023/12/15 01:28:17;;;;;;;15.30;14.70;;;7.50;99.90;;;;;;5062948;28;20302;-65
2023/12/15 01:30:45;;;;;;;14.63;14.13;;;7.50;99.90;;;;;;5060153;28;20679;-67
2023/12/15 01:33:12;;;;;;;14.07;13.57;;;7.50;99.90;;;;;;5056842;28;20199;-67
2023/12/15 01:35:38;;;;;;;15.40;14.80;;;7.50;99.90;;;;;;5066558;28;20214;-66
2023/12/15 01:38:05;;;;;;;14.40;13.90;;;7.50;99.90;;;;;;5068909;28;20230;-66
2023/12/15 01:40:32;;;;;;;14.63;14.13;;;7.40;99.90;;;;;;5072356;28;20210;-66
2023/12/15 01:43:00;;;;;;;15.13;14.53;;;7.40;99.90;;;;;;5071576;28;20210;-67
2023/12/15 01:45:27;;;;;;;14.83;14.33;;;7.40;99.90;;;;;;5069623;28;20208;-66
2023/12/15 01:47:55;;;;;;;14.77;14.27;;;7.50;99.90;;;;;;5071766;28;20227;-67
2023/12/15 01:50:22;;;;;;;14.70;14.20;;;7.50;99.90;;;;;;5071230;28;20206;-67
2023/12/15 01:52:49;;;;;;;14.50;14.00;;;7.50;99.90;;;;;;5073293;28;20303;-67
2023/12/15 01:55:15;;;;;;;15.20;14.70;;;7.40;99.90;;;;;;5070822;28;20219;-67
2023/12/15 01:57:44;;;;;;;13.97;13.47;;;7.30;99.90;;;;;;5070452;28;20219;-66
2023/12/15 02:00:11;;;;;;;14.90;14.30;;;7.30;99.90;;;;;;5066079;28;20215;-66
2023/12/15 02:02:39;;;;;;;14.37;13.87;;;7.30;99.90;;;;;;5070387;28;20210;-67
2023/12/15 02:05:07;;;;;;;15.00;14.50;;;7.40;99.90;;;;;;5069572;28;20195;-66
2023/12/15 02:07:34;;;;;;;15.87;15.27;;;7.30;99.90;;;;;;5070673;28;20242;-66
2023/12/15 02:10:01;;;;;;;15.83;15.23;;;7.30;99.90;;;;;;5069312;28;20199;-67
2023/12/15 02:12:27;;;;;;;14.30;13.80;;;7.30;99.90;;;;;;5067064;28;20206;-67
2023/12/15 02:14:54;;;;;;;14.53;14.03;;;7.30;99.90;;;;;;5067090;28;20713;-66
2023/12/15 02:17:21;;;;;;;15.33;14.73;;;7.30;99.90;;;;;;5065709;28;20215;-66
2023/12/15 02:19:47;;;;;;;15.27;14.67;;;7.30;99.90;;;;;;5068515;28;20207;-66
2023/12/15 02:22:16;;;;;;;15.83;15.23;;;7.30;99.90;;;;;;5065087;28;20210;-66
2023/12/15 02:24:44;;;;;;;15.40;14.80;;;7.20;99.90;;;;;;5066017;28;20192;-68
2023/12/15 02:27:10;;;;;;;16.20;15.60;;;7.30;99.90;;;;;;5068352;28;20215;-66
2023/12/15 02:29:37;;;;;;;14.60;14.10;;;7.30;99.90;;;;;;5067026;28;20196;-66
2023/12/15 02:32:04;;;;;;;15.57;14.97;;;7.30;99.90;;;;;;5066955;28;20203;-66
2023/12/15 02:34:31;;;;;;;18.37;17.60;;;7.20;99.90;;;;;;5065861;28;20215;-67
2023/12/15 02:36:58;;;;;;;16.03;15.43;;;7.20;99.90;;;;;;5066506;28;20203;-66
2023/12/15 02:39:24;;;;;;;16.57;15.97;;;7.20;99.90;;;;;;5067478;28;20259;-65
2023/12/15 02:41:52;;;;;;;15.90;15.30;;;7.20;99.90;;;;;;5067207;28;20207;-65
2023/12/15 02:44:19;;;;;;;15.73;15.13;;;7.20;99.90;;;;;;5066080;28;20199;-65
2023/12/15 02:46:46;;;;;;;15.67;15.07;;;7.20;99.90;;;;;;5073055;28;20684;-66
2023/12/15 02:49:13;;;;;;;14.60;14.10;;;7.20;99.90;;;;;;5077230;28;20203;-66
2023/12/15 02:51:39;;;;;;;14.57;14.07;;;7.20;99.90;;;;;;5078799;28;20214;-65
2023/12/15 02:54:06;;;;;;;14.60;14.10;;;7.30;99.90;;;;;;5079189;28;20242;-67
2023/12/15 02:56:33;;;;;;;14.30;13.80;;;7.40;99.90;;;;;;5076562;28;20200;-66
2023/12/15 02:59:03;;;;;;;15.03;14.53;;;7.40;99.90;;;;;;5074599;28;20227;-67
2023/12/15 03:01:30;;;;;;;14.57;14.07;;;7.40;99.90;;;;;;5071853;28;20211;-66
2023/12/15 03:03:56;;;;;;;14.30;13.80;;;7.50;99.90;;;;;;5074182;28;20541;-65
2023/12/15 03:06:23;;;;;;;14.73;14.17;;;7.50;99.90;;;;;;5075049;28;20203;-65
2023/12/15 03:08:50;;;;;;;15.50;14.93;;;7.40;99.90;;;;;;5072453;28;20219;-67
2023/12/15 03:11:17;;;;;;;15.03;14.43;;;7.40;99.90;;;;;;5069183;28;20200;-66
2023/12/15 03:13:44;;;;;;;13.97;13.47;;;7.50;99.90;;;;;;5067820;28;20207;-66
2023/12/15 03:16:13;;;;;;;15.83;15.23;;;7.40;99.90;;;;;;5071838;28;20207;-66
2023/12/15 03:18:39;;;;;;;14.60;14.10;;;7.40;99.90;;;;;;5072104;28;20230;-66
2023/12/15 03:21:07;;;;;;;14.83;14.33;;;7.40;99.90;;;;;;5070377;28;20234;-67
2023/12/15 03:23:34;;;;;;;16.23;15.57;;;7.40;99.90;;;;;;5071377;28;20215;-67
2023/12/15 03:26:00;;;;;;;15.37;14.77;;;7.50;99.90;;;;;;5074815;28;20234;-65
2023/12/15 03:28:27;;;;;;;15.20;14.60;;;7.50;99.90;;;;;;5068270;28;20238;-66
2023/12/15 03:30:54;;;;;;;15.70;15.10;;;7.50;99.90;;;;;;5074557;28;20576;-67
2023/12/15 03:33:24;;;;;;;16.10;15.50;;;7.50;99.90;;;;;;5073099;28;20207;-67
2023/12/15 03:35:51;;;;;;;15.30;14.70;;;7.50;99.90;;;;;;5074382;28;20223;-67
2023/12/15 03:38:18;;;;;;;15.57;14.97;;;7.50;99.90;;;;;;5074181;28;20716;-67
2023/12/15 03:40:45;;;;;;;16.07;15.47;;;7.50;99.90;;;;;;5071441;28;20241;-66
2023/12/15 03:43:12;;;;;;;15.43;14.83;;;7.50;99.90;;;;;;5083028;28;20211;-66
2023/12/15 03:45:38;;;;;;;15.53;14.93;;;7.50;99.90;;;;;;5076308;28;20203;-66
2023/12/15 03:48:06;;;;;;;14.07;13.57;;;7.50;99.90;;;;;;5075082;28;20227;-66
2023/12/15 03:50:34;;;;;;;14.40;13.90;;;7.60;99.90;;;;;;5085462;28;20203;-66
2023/12/15 03:53:00;;;;;;;14.93;14.43;;;7.60;99.90;;;;;;5088929;28;20222;-67
2023/12/15 03:55:27;;;;;;;15.07;14.57;;;7.60;99.90;;;;;;5086748;28;20245;-67
2023/12/15 03:57:54;;;;;;;15.60;15.00;;;7.60;99.90;;;;;;5081325;28;20238;-67
2023/12/15 04:00:21;;;;;;;16.20;15.60;;;7.60;99.90;;;;;;5072532;28;20210;-66
2023/12/15 04:02:48;;;;;;;14.60;14.10;;;7.60;99.90;;;;;;5073942;28;20298;-64
2023/12/15 04:05:15;;;;;;;14.43;13.93;;;7.60;99.90;;;;;;5071836;28;20203;-65
2023/12/15 04:07:43;;;;;;;15.00;14.40;;;7.60;99.90;;;;;;5076209;28;20223;-65
2023/12/15 04:10:10;;;;;;;14.70;14.10;;;7.70;99.90;;;;;;5071516;28;20543;-67
2023/12/15 04:12:37;;;;;;;14.47;13.97;;;7.70;99.90;;;;;;5071801;28;20214;-66
2023/12/15 04:15:04;;;;;;;15.60;15.00;;;7.70;99.90;;;;;;5071527;28;20219;-67
2023/12/15 04:17:31;;;;;;;15.53;14.93;;;7.70;99.90;;;;;;5069947;28;20223;-67
2023/12/15 04:19:58;;;;;;;15.40;14.80;;;7.60;99.90;;;;;;5070985;28;20202;-65
2023/12/15 04:22:25;;;;;;;14.53;14.03;;;7.60;99.90;;;;;;5068416;28;20633;-65
2023/12/15 04:24:53;;;;;;;15.60;15.00;;;7.50;99.90;;;;;;5069935;28;20214;-66
2023/12/15 04:27:20;;;;;;;16.30;15.70;;;7.50;99.90;;;;;;5070822;28;20756;-67
2023/12/15 04:29:46;;;;;;;14.90;14.30;;;7.50;99.90;;;;;;5069390;28;20203;-67
2023/12/15 04:32:13;;;;;;;15.87;15.27;;;7.50;99.90;;;;;;5069829;28;20195;-67
2023/12/15 04:34:40;;;;;;;16.20;15.60;;;7.50;99.90;;;;;;5067358;28;20248;-67
2023/12/15 04:37:07;;;;;;;15.63;15.03;;;7.50;99.90;;;;;;5069439;28;20720;-65
2023/12/15 04:39:34;;;;;;;15.03;14.47;;;7.50;99.90;;;;;;5069376;28;20212;-65
2023/12/15 04:42:02;;;;;;;16.13;15.53;;;7.50;99.90;;;;;;5069618;28;20545;-66
2023/12/15 04:44:29;;;;;;;15.90;15.30;;;7.50;99.90;;;;;;5068704;28;20208;-67
2023/12/15 04:46:56;;;;;;;15.33;14.77;;;7.50;99.90;;;;;;5069387;28;20227;-66
2023/12/15 04:49:23;;;;;;;14.57;14.07;;;7.50;99.90;;;;;;5069156;28;20200;-67
2023/12/15 04:51:49;;;;;;;15.67;15.07;;;7.50;99.90;;;;;;5069466;28;20230;-65
2023/12/15 04:54:16;;;;;;;16.70;16.10;;;7.60;99.90;;;;;;5069333;28;20199;-65
2023/12/15 04:56:44;;;;;;;15.33;14.73;;;7.50;99.90;;;;;;5069407;28;20203;-66
2023/12/15 04:59:13;;;;;;;15.93;15.33;;;7.50;99.90;;;;;;5069575;28;20286;-66
2023/12/15 05:01:39;;;;;;;15.20;14.60;;;7.50;99.90;;;;;;5068199;28;20650;-67
2023/12/15 05:04:06;;;;;;;15.50;14.97;;;7.50;99.90;;;;;;5069695;28;20199;-66
2023/12/15 05:06:34;;;;;;;16.43;15.83;;;7.50;99.90;;;;;;5068477;28;20678;-65
2023/12/15 05:09:04;;;;;;;16.47;15.87;;;7.50;99.90;;;;;;5070344;28;20578;-66
2023/12/15 05:11:34;;;;;;;16.87;16.27;;;7.40;99.90;;;;;;5069311;28;20218;-65
2023/12/15 05:14:00;;;;;;;16.30;15.70;;;7.40;99.90;;;;;;5069661;28;20214;-67
2023/12/15 05:16:28;;;;;;;14.53;14.03;;;7.40;99.90;;;;;;5069041;28;20227;-66
2023/12/15 05:18:55;;;;;;;15.87;15.27;;;7.40;99.90;;;;;;5070042;28;20728;-66
2023/12/15 05:21:22;;;;;;;16.00;15.40;;;7.40;99.90;;;;;;5075513;28;20203;-66
2023/12/15 05:23:49;;;;;;;16.17;15.57;;;7.40;99.90;;;;;;5072864;28;20654;-66
2023/12/15 05:26:15;;;;;;;16.13;15.53;;;7.40;99.90;;;;;;5069848;28;20203;-66
2023/12/15 05:28:44;;;;;;;16.00;15.40;;;7.40;99.90;;;;;;5069341;28;20219;-67
2023/12/15 05:31:11;;;;;;;15.77;15.17;;;7.50;99.90;;;;;;5068865;28;20203;-66
2023/12/15 05:33:39;;;;;;;15.23;14.53;;;7.50;99.90;;;;;;5068657;28;20204;-66
2023/12/15 05:36:06;;;;;;;15.57;14.97;;;7.50;99.90;;;;;;5069629;28;20230;-66
2023/12/15 05:38:33;;;;;;;16.00;15.40;;;7.50;99.90;;;;;;5069174;28;20234;-66
2023/12/15 05:41:00;;;;;;;16.60;16.00;;;7.50;99.90;;;;;;5069308;28;20207;-65
2023/12/15 05:43:26;;;;;;;16.40;15.80;;;7.50;99.90;;;;;;5069426;28;20211;-66
2023/12/15 05:45:52;;;;;;;14.60;14.10;;;7.50;99.90;;;;;;5066691;28;20286;-67
2023/12/15 05:48:19;;;;;;;14.23;13.73;;;7.50;99.90;;;;;;5068668;28;20306;-66
2023/12/15 05:50:47;;;;;;;14.50;13.93;;;7.60;99.90;;;;;;5064988;28;20199;-67
2023/12/15 05:53:14;;;;;;;14.80;14.27;;;7.70;99.90;;;;;;5069062;28;20207;-66
2023/12/15 05:55:40;;;;;;;15.47;14.87;;;7.70;99.90;;;;;;5069360;28;20227;-65
2023/12/15 05:58:07;;;;;;;15.33;14.73;;;7.70;99.90;;;;;;5069311;28;20307;-68
2023/12/15 06:00:34;;;;;;;15.60;15.00;;;7.70;99.90;;;;;;5068939;28;20207;-67
2023/12/15 06:03:00;;;;;;;14.87;14.27;;;7.70;99.90;;;;;;5069275;28;20230;-65
2023/12/15 06:05:28;;;;;;;14.70;14.17;;;7.80;99.90;;;;;;5068812;28;20853;-66
2023/12/15 06:07:56;;;;;;;14.47;13.97;;;7.70;99.90;;;;;;5070126;28;20306;-66
2023/12/15 06:10:22;;;;;;;16.23;15.60;;;7.70;99.90;;;;;;5069203;28;20203;-68
2023/12/15 06:12:49;;;;;;;14.20;13.70;;;7.70;99.90;;;;;;5067834;28;20203;-67
2023/12/15 06:15:16;;;;;;;14.10;13.60;;;7.70;99.90;;;;;;5069597;28;20658;-67
2023/12/15 06:17:43;;;;;;;14.93;14.37;;;7.70;99.90;;;;;;5069147;28;20254;-67
2023/12/15 06:20:11;;;;;;;14.83;14.33;;;7.70;99.90;;;;;;5067491;28;20199;-68
2023/12/15 06:22:38;;;;;;;15.37;14.77;;;7.70;99.90;;;;;;5073537;28;20207;-67
2023/12/15 06:25:08;;;;;;;14.87;14.27;;;7.70;99.90;;;;;;5070948;28;20195;-65
2023/12/15 06:27:35;;;;;;;14.87;14.37;;;7.70;99.90;;;;;;5073982;28;20705;-64
2023/12/15 06:30:02;;;;;;;14.47;13.97;;;7.70;99.90;;;;;;5074792;28;20599;-65
2023/12/15 06:32:29;;;;;;;14.73;14.20;;;7.70;99.90;;;;;;5074017;28;20211;-65
2023/12/15 06:34:56;;;;;;;14.83;14.30;;;7.70;99.90;;;;;;5076932;28;20238;-65
2023/12/15 06:37:22;;;;;;;15.13;14.57;;;7.70;99.90;;;;;;5077374;28;20230;-64
2023/12/15 06:39:50;;;;;;;14.83;14.33;;;7.70;99.90;;;;;;5074938;28;20211;-64
2023/12/15 06:42:18;;;;;;;15.40;14.83;;;7.70;99.90;;;;;;5074609;28;20688;-64
2023/12/15 06:44:46;;;;;;;15.00;14.50;;;7.70;99.90;;;;;;5074417;28;20203;-64
2023/12/15 06:47:13;;;;;;;15.60;15.00;;;7.70;99.90;;;;;;5075671;28;20228;-65
2023/12/15 06:49:40;;;;;;;14.80;14.30;;;7.70;99.90;;;;;;5076630;28;20571;-64
2023/12/15 06:52:07;;;;;;;16.07;15.47;;;7.70;99.90;;;;;;5072264;28;20218;-68
2023/12/15 06:54:34;;;;;;;14.70;14.20;;;7.70;99.90;;;;;;5068946;28;20199;-68
2023/12/15 06:57:01;;;;;;;15.33;14.73;;;7.70;99.90;;;;;;5066744;28;20302;-67
2023/12/15 06:59:29;;;;;;;14.70;14.20;;;7.70;99.90;;;;;;5071356;28;20682;-67
2023/12/15 07:01:55;;;;;;;13.77;13.27;;;7.80;99.90;;;;;;5073362;28;20306;-67
2023/12/15 07:04:22;;;;;;;15.00;14.47;;;7.80;99.90;;;;;;5071999;28;20666;-69
2023/12/15 07:06:49;;;;;;;15.60;15.00;;;7.90;99.90;;;;;;5064607;28;20196;-64
2023/12/15 07:09:16;;;;;;;14.37;13.87;;;7.80;99.90;;;;;;5076077;28;20203;-64
2023/12/15 07:11:42;;;;;;;14.63;14.13;;;7.80;99.90;;;;;;5077207;28;20196;-62
2023/12/15 07:14:09;;;;;;;16.13;15.53;;;7.80;99.90;;;;;;5077828;28;20324;-67
2023/12/15 07:16:37;;;;;;;15.13;14.53;;;7.80;99.90;;;;;;5074582;28;20239;-65
2023/12/15 07:19:04;;;;;;;16.07;15.47;;;7.80;99.90;;;;;;5074776;28;20611;-69
2023/12/15 07:21:31;;;;;;;14.80;14.30;;;7.90;99.90;;;;;;5083507;28;20198;-66
2023/12/15 07:23:58;;;;;;;14.93;14.43;;;7.80;99.90;;;;;;5083244;28;20221;-67
2023/12/15 07:26:25;;;;;;;15.00;14.43;;;7.80;99.90;;;;;;5080174;28;21022;-66
2023/12/15 07:28:51;;;;;;;14.43;13.93;;;7.80;99.90;;;;;;5073557;28;20231;-68
2023/12/15 07:31:19;;;;;;;14.83;14.23;;;7.80;99.90;;;;;;5068250;28;20206;-67
2023/12/15 07:33:47;;;;;;;15.30;14.77;;;7.80;99.90;;;;;;5067776;28;20208;-68
2023/12/15 07:36:13;;;;;;;15.43;14.83;;;7.80;99.90;;;;;;5069844;28;20651;-67
2023/12/15 07:38:40;;;;;;;16.97;16.27;;;7.80;99.90;;;;;;5071266;28;20224;-68
2023/12/15 07:41:08;;;;;;;15.40;14.80;;;7.80;99.90;;;;;;5064672;28;20292;-67
2023/12/15 07:43:35;;;;;;;15.43;14.83;;;7.80;99.90;;;;;;5067787;28;20670;-67
2023/12/15 07:46:01;;;;;;;15.73;15.13;;;7.80;99.90;;;;;;5071881;28;20203;-67
2023/12/15 07:48:28;;;;;;;14.47;13.97;;;7.80;99.90;;;;;;5073098;28;20581;-66
2023/12/15 07:50:57;;;;;;;14.53;14.03;;;7.90;99.90;;;;;;5077328;28;20207;-66
2023/12/15 07:53:24;;;;;;;14.83;14.33;;;7.90;99.90;;;;;;5071317;28;20207;-68
2023/12/15 07:55:50;;;;;;;15.40;14.90;;;7.90;99.90;;;;;;5071904;28;20219;-66
2023/12/15 07:58:18;;;;;;;16.30;15.70;;;7.90;99.90;;;;;;5074042;28;20223;-67
2023/12/15 08:00:44;;;;;;;14.80;14.30;;;7.90;99.90;;;;;;5072762;28;20211;-67
2023/12/15 08:03:11;;;;;;;15.87;15.27;;;7.90;99.90;;;;;;5073089;28;20211;-66
2023/12/15 08:05:38;;;;;;;16.47;15.87;;;7.90;99.90;;;;;;5066781;28;20203;-66
2023/12/15 08:08:06;;;;;;;15.90;15.30;;;7.90;99.90;;;;;;5072165;28;20230;-68
2023/12/15 08:10:34;;;;;;;14.83;14.33;;;8.00;99.90;;;;;;5073176;28;20210;-67
2023/12/15 08:13:01;;;;;;;14.50;13.90;;;8.00;99.90;;;;;;5066477;28;20626;-68
2023/12/15 08:15:27;;;;;;;16.30;15.70;;;8.00;99.90;;;;;;5071636;28;20234;-67
2023/12/15 08:17:54;;;;;;;15.13;14.57;;;8.00;99.90;;;;;;5066382;28;20305;-67
2023/12/15 08:20:21;;;;;;;15.30;14.70;;;8.00;99.90;;;;;;5071360;28;20678;-67
2023/12/15 08:22:48;;;;;;;14.70;14.10;;;8.00;99.90;;;;;;5070733;28;20205;-68
2023/12/15 08:25:16;;;;;;;15.90;15.30;;;8.10;99.90;;;;;;5068152;28;20294;-67
2023/12/15 08:27:43;;;;;;;15.40;14.80;;;8.10;99.90;;;;;;5073271;28;20234;-67
2023/12/15 08:30:10;;;;;;;15.23;14.63;;;8.20;99.90;;;;;;5070663;28;20209;-67
2023/12/15 08:32:37;;;;;;;14.63;14.13;;;8.20;99.90;;;;;;5073376;28;20218;-67
2023/12/15 08:35:04;;;;;;;14.30;13.80;;;8.20;99.90;;;;;;5071838;28;20200;-68
2023/12/15 08:37:31;;;;;;;15.17;14.63;;;8.30;99.90;;;;;;5073330;28;20330;-66
2023/12/15 08:39:57;;;;;;;14.40;13.90;;;8.30;99.90;;;;;;5073164;28;20293;-67
2023/12/15 08:42:25;;;;;;;13.97;13.47;;;8.30;99.90;;;;;;5073004;28;20218;-66
2023/12/15 08:44:52;;;;;;;14.23;13.73;;;8.40;99.90;;;;;;5075518;28;20254;-66
2023/12/15 08:47:19;;;;;;;14.47;13.97;;;8.30;99.90;;;;;;5072156;28;20246;-67
2023/12/15 08:49:45;;;;;;;13.93;13.43;;;8.30;99.90;;;;;;5066091;28;20214;-67
2023/12/15 08:52:12;;;;;;;15.03;14.53;;;8.30;99.90;;;;;;5069819;28;20662;-65
2023/12/15 08:54:39;;;;;;;14.77;14.27;;;8.40;99.90;;;;;;5070943;28;20214;-67
2023/12/15 08:57:06;;;;;;;16.47;15.87;;;8.40;99.90;;;;;;5068936;28;20615;-67
2023/12/15 08:59:34;;;;;;;14.93;14.43;;;8.40;99.90;;;;;;5065076;28;20222;-67
2023/12/15 09:02:00;;;;;;;14.07;13.57;;;8.50;99.90;;;;;;5064765;28;20214;-67
2023/12/15 09:04:27;;;;;;;15.60;15.00;;;8.50;99.90;;;;;;5068322;28;20224;-67
2023/12/15 09:06:54;;;;;;;14.93;14.43;;;8.60;99.90;;;;;;5061528;28;20200;-65
2023/12/15 09:09:23;;;;;;;15.33;14.73;;;8.60;99.90;;;;;;5069073;28;20214;-67
2023/12/15 09:11:50;;;;;;;15.27;14.77;;;8.60;99.90;;;;;;5060361;28;20204;-67
2023/12/15 09:14:17;;;;;;;14.67;14.17;;;8.70;99.90;;;;;;5064329;28;20261;-64
2023/12/15 09:16:47;;;;;;;15.03;14.53;;;8.80;99.90;;;;;;5070086;28;20245;-68
2023/12/15 09:19:16;;;;;;;15.20;14.70;;;8.80;99.90;;;;;;5069769;28;20210;-67
2023/12/15 09:21:43;;;;;;;16.50;15.83;;;8.90;99.90;;;;;;5065825;28;20214;-67
2023/12/15 09:24:09;;;;;;;14.53;14.03;;;8.90;99.90;;;;;;5068006;28;20603;-68
2023/12/15 09:26:38;;;;;;;14.20;13.70;;;8.90;99.90;;;;;;5066599;28;20203;-68
2023/12/15 09:29:05;;;;;;;13.73;13.23;;;8.90;99.90;;;;;;5068509;28;20230;-66
2023/12/15 09:31:31;;;;;;;14.07;13.57;;;9.00;99.90;;;;;;5068395;28;20211;-67
2023/12/15 09:33:59;;;;;;;13.60;13.10;;;9.00;99.90;;;;;;5070546;28;20211;-66
2023/12/15 09:36:26;;;;;;;13.80;13.30;;;8.90;99.90;;;;;;5069425;28;20230;-67
2023/12/15 09:38:53;;;;;;;13.30;12.80;;;8.90;99.90;;;;;;5069246;28;20223;-67
2023/12/15 09:41:20;;;;;;;13.63;13.13;;;8.90;99.90;;;;;;5071678;28;20640;-68
2023/12/15 09:43:46;;;;;;;14.60;14.10;;;9.00;99.90;;;;;;5071543;28;20195;-66
2023/12/15 09:46:13;;;;;;;13.60;13.10;;;9.00;99.90;;;;;;5072398;28;20204;-67
2023/12/15 09:48:40;;;;;;;14.27;13.77;;;9.00;99.90;;;;;;5070723;28;20234;-66
2023/12/15 09:51:19;;;;;;;13.97;13.47;;;9.00;99.90;;;;;;5069300;28;20713;-66
2023/12/15 09:53:48;;;;;;;13.37;12.87;;;9.00;99.90;;;;;;5069536;28;20210;-67
2023/12/15 09:56:15;;;;;;;14.03;13.53;;;9.00;99.90;;;;;;5075116;28;20250;-68
2023/12/15 09:58:43;;;;;;;13.50;13.00;;;9.10;99.90;;;;;;5076044;28;20230;-67
2023/12/15 10:01:11;;;;;;;12.70;12.20;;;9.10;99.90;;;;;;5074497;28;20344;-66
2023/12/15 10:03:37;;;;;;;12.80;12.30;;;9.10;99.90;;;;;;5071845;28;20553;-68
2023/12/15 10:06:04;;;;;;;12.77;12.37;;;9.20;99.90;;;;;;5073418;28;20195;-67
2023/12/15 10:08:42;;;;;;;12.17;11.77;;;9.20;99.90;;;;;;5073725;28;20223;-66
2023/12/15 10:11:08;;;;;;;12.77;12.37;;;9.30;99.90;;;;;;5071380;28;20199;-67
2023/12/15 10:13:35;;;;;;;13.20;12.70;;;9.40;99.90;;;;;;5073130;28;20200;-67
2023/12/15 10:16:02;;;;;;;13.67;13.10;;;9.50;99.90;;;;;;5076385;28;20222;-68
2023/12/15 10:18:28;;;;;;;13.50;13.00;;;9.50;99.90;;;;;;5074299;28;20638;-66
2023/12/15 10:20:55;;;;;;;13.17;12.67;;;9.60;99.90;;;;;;5074325;28;20199;-68
2023/12/15 10:23:27;;;;;;;12.93;12.47;;;9.60;99.90;;;;;;5075197;28;20204;-66
2023/12/15 10:25:56;;;;;;;12.77;12.37;;;9.50;99.90;;;;;;5078345;28;20195;-67
2023/12/15 10:28:23;;;;;;;13.20;12.70;;;9.40;99.90;;;;;;5078187;28;20223;-66
2023/12/15 10:30:51;;;;;;;12.70;12.30;;;9.40;99.90;;;;;;5077345;28;20200;-66
2023/12/15 10:33:18;;;;;;;12.60;12.20;;;9.30;99.90;;;;;;5076622;28;20210;-68
2023/12/15 10:35:47;;;;;;;13.10;12.60;;;9.40;99.90;;;;;;5073619;28;20207;-68
2023/12/15 10:38:14;;;;;;;12.90;12.50;;;9.40;99.90;;;;;;5074427;28;20262;-66
2023/12/15 10:40:42;;;;;;;13.20;12.70;;;9.60;99.90;;;;;;5074200;28;20211;-66
2023/12/15 10:43:11;;;;;;;13.13;12.63;;;9.70;99.90;;;;;;5069487;28;20211;-67
2023/12/15 10:45:38;;;;;;;13.40;12.90;;;9.80;99.90;;;;;;5074423;28;20318;-67
2023/12/15 10:48:06;;;;;;;13.43;12.93;;;9.90;99.90;;;;;;5073267;28;20211;-65
2023/12/15 10:50:35;;;;;;;12.60;12.10;;;10.00;99.90;;;;;;5073364;28;20222;-67
2023/12/15 10:53:03;;;;;;;11.63;11.23;;;10.00;99.90;;;;;;5072582;28;20302;-68
2023/12/15 10:55:30;;;;;;;12.60;12.00;;;10.10;99.90;;;;;;5073267;28;20649;-67
2023/12/15 10:57:58;;;;;;;11.80;11.40;;;10.00;99.90;;;;;;5067605;28;20231;-66
2023/12/15 11:00:26;;;;;;;12.40;12.00;;;10.10;99.90;;;;;;5073364;28;20321;-66
2023/12/15 11:02:54;;;;;;;12.40;12.00;;;10.00;99.90;;;;;;5069948;28;20625;-67
2023/12/15 11:05:21;;;;;;;12.67;12.20;;;10.10;99.90;;;;;;5073639;28;20220;-66
2023/12/15 11:07:50;;;;;;;12.10;11.70;;;10.00;99.90;;;;;;5072329;28;20227;-68
2023/12/15 11:10:17;;;;;;;12.00;11.60;;;10.10;99.90;;;;;;5076008;28;20577;-66
2023/12/15 11:12:44;;;;;;;12.20;11.80;;;10.20;99.90;;;;;;5076629;28;20215;-67
2023/12/15 11:15:12;;;;;;;13.20;12.70;;;10.20;99.90;;;;;;5076576;28;20214;-67
2023/12/15 11:17:43;;;;;;;13.03;12.53;;;10.30;99.90;;;;;;5071952;28;20223;-66
2023/12/15 11:20:34;;;;;;;12.63;12.23;;;10.20;99.90;;;;;;5072488;28;20344;-67
2023/12/15 11:23:06;;;;;;;12.47;12.07;;;10.20;99.90;;;;;;5066459;28;20507;-66
2023/12/15 11:25:35;;;;;;;12.53;12.07;;;10.30;99.90;;;;;;5072108;28;20776;-66
2023/12/15 11:28:07;;;;;;;13.40;12.90;;;10.30;99.90;;;;;;5072082;28;20701;-68
2023/12/15 11:30:36;;;;;;;13.37;12.87;;;10.40;99.90;;;;;;5073029;28;20215;-66
2023/12/15 11:33:39;;;;;;;12.60;12.20;;;10.30;99.90;;;;;;5071372;28;20203;-65
2023/12/15 11:36:09;;;;;;;12.70;12.30;;;10.30;99.90;;;;;;5070878;28;20199;-66
2023/12/15 11:38:37;;;;;;;11.63;11.23;;;10.30;99.90;;;;;;5074811;28;20231;-67
2023/12/15 11:41:04;;;;;;;12.23;11.73;;;10.30;99.90;;;;;;5079334;28;20214;-66
2023/12/15 11:43:32;;;;;;;13.60;12.87;;;10.20;99.90;;;;;;5076943;28;20203;-66
2023/12/15 11:46:00;;;;;;;12.30;11.90;;;10.20;99.90;;;;;;5072746;28;20199;-65
2023/12/15 11:48:26;;;;;;;11.87;11.47;;;10.20;99.90;;;;;;5072347;28;20223;-67
2023/12/15 11:50:53;;;;;;;12.43;12.03;;;10.20;99.90;;;;;;5073959;28;20214;-66
2023/12/15 11:53:22;;;;;;;12.70;12.20;;;10.30;99.90;;;;;;5073246;28;20214;-66
2023/12/15 11:55:50;;;;;;;12.03;11.63;;;10.30;99.90;;;;;;5069111;28;20619;-65
2023/12/15 11:58:18;;;;;;;13.30;12.70;;;10.40;99.90;;;;;;5074099;28;20591;-66
2023/12/15 12:00:45;;;;;;;13.17;12.67;;;10.40;99.90;;;;;;5072418;28;20273;-66
2023/12/15 12:03:13;;;;;;;12.30;11.90;;;10.30;99.90;;;;;;5073809;28;20677;-65
2023/12/15 12:05:41;;;;;;;12.40;12.00;;;10.30;99.90;;;;;;5072841;28;20211;-65
2023/12/15 12:08:10;;;;;;;13.03;12.43;;;10.30;99.90;;;;;;5069879;28;20220;-66
2023/12/15 12:10:39;;;;;;;12.27;11.87;;;10.30;99.90;;;;;;5072469;28;20215;-66
2023/12/15 12:13:06;;;;;;;12.63;12.23;;;10.30;99.90;;;;;;5072152;28;20211;-67
2023/12/15 12:15:33;;;;;;;12.97;12.53;;;10.30;99.90;;;;;;5084116;28;20213;-66
2023/12/15 12:18:00;;;;;;;12.57;12.17;;;10.30;99.90;;;;;;5083126;28;20223;-67
2023/12/15 12:20:30;;;;;;;12.03;11.63;;;10.20;99.90;;;;;;5082189;28;20299;-67
2023/12/15 12:22:57;;;;;;;12.63;12.00;;;10.10;99.90;;;;;;5082765;28;20274;-66
2023/12/15 12:25:23;;;;;;;12.13;11.73;;;10.20;99.90;;;;;;5084465;28;20218;-66
2023/12/15 12:27:53;;;;;;;12.70;12.27;;;10.20;99.90;;;;;;5087866;28;20215;-67
2023/12/15 12:30:20;;;;;;;12.60;12.10;;;10.30;99.90;;;;;;5079383;28;20290;-65
2023/12/15 12:32:48;;;;;;;12.20;11.80;;;10.30;99.90;;;;;;5069671;28;20199;-67
2023/12/15 12:35:15;;;;;;;12.27;11.87;;;10.30;99.90;;;;;;5074940;28;20199;-67